Time;durP1;ratioP1;P1;durP2;ratioP2;P2;SDS_P1;SDS_P2;PMS_P1;PMS_P2;Temp;Humidity;BMP_temperature;BMP_pressure;BME280_temperature;BME280_humidity;BME280_pressure;Samples;Min_cycle;Max_cycle;Signal;HPM_P1;HPM_P2
2022/06/21 00:01:18;;;;;;;0.10;0.10;;;13.60;99.90;;;;;;4895073;29;20076;-69
2022/06/21 00:03:46;;;;;;;0.00;0.00;;;13.60;99.90;;;;;;4893870;29;20049;-69
2022/06/21 00:06:14;;;;;;;0.05;0.05;;;13.60;99.90;;;;;;4894755;29;20052;-69
2022/06/21 00:08:40;;;;;;;0.10;0.10;;;13.50;99.90;;;;;;4895227;29;20044;-69
2022/06/21 00:11:26;;;;;;;0.00;0.00;;;13.60;99.90;;;;;;4892367;29;20059;-69
2022/06/21 00:13:52;;;;;;;0.22;0.22;;;13.60;99.90;;;;;;4904953;29;20862;-69
2022/06/21 00:16:18;;;;;;;0.45;0.43;;;13.60;99.90;;;;;;4912885;29;20056;-70
2022/06/21 00:18:46;;;;;;;0.00;0.00;;;13.60;99.90;;;;;;4912310;29;20055;-69
2022/06/21 00:21:35;;;;;;;0.10;0.10;;;13.50;99.90;;;;;;4895666;29;20485;-69
2022/06/21 00:24:01;;;;;;;0.10;0.10;;;13.40;99.90;;;;;;4893958;29;20052;-69
2022/06/21 00:26:28;;;;;;;0.40;0.40;;;13.50;99.90;;;;;;4894199;29;20052;-69
2022/06/21 00:28:54;;;;;;;0.10;0.10;;;13.40;99.90;;;;;;4895078;29;20059;-69
2022/06/21 00:31:25;;;;;;;0.10;0.10;;;13.30;99.90;;;;;;4910363;29;20040;-69
2022/06/21 00:33:50;;;;;;;0.10;0.10;;;13.30;99.90;;;;;;4913530;29;20593;-69
2022/06/21 00:36:23;;;;;;;0.10;0.10;;;13.20;99.90;;;;;;4913762;29;20091;-69
2022/06/21 00:38:50;;;;;;;0.05;0.05;;;13.20;99.90;;;;;;4901428;29;20064;-69
2022/06/21 00:41:18;;;;;;;1.45;0.40;;;13.20;99.90;;;;;;4898854;29;20505;-69
2022/06/21 00:43:49;;;;;;;0.00;0.00;;;13.20;99.90;;;;;;4896051;29;20053;-69
2022/06/21 00:46:38;;;;;;;0.10;0.10;;;13.20;99.90;;;;;;4893110;29;20052;-69
2022/06/21 00:49:35;;;;;;;0.20;0.20;;;13.20;99.90;;;;;;4895027;29;20128;-70
2022/06/21 00:52:13;;;;;;;0.40;0.40;;;13.10;99.90;;;;;;4887807;29;20057;-69
2022/06/21 00:54:56;;;;;;;1.05;0.95;;;13.00;99.90;;;;;;4904681;29;20092;-69
2022/06/21 00:57:25;;;;;;;;;;;13.00;99.90;;;;;;4907613;29;20049;-69
2022/06/21 00:59:51;;;;;;;0.10;0.10;;;13.10;99.90;;;;;;4894326;29;19928;-69
2022/06/21 01:02:32;;;;;;;0.10;0.10;;;13.10;99.90;;;;;;4897884;29;20044;-69
2022/06/21 01:05:01;;;;;;;0.10;0.10;;;13.00;99.90;;;;;;4910195;29;20476;-69
2022/06/21 01:07:27;;;;;;;0.68;0.68;;;13.00;99.90;;;;;;4910456;29;20454;-69
2022/06/21 01:09:59;;;;;;;0.10;0.10;;;12.90;99.90;;;;;;4909400;29;20055;-69
2022/06/21 01:12:32;;;;;;;0.20;0.20;;;13.00;99.90;;;;;;4913571;29;20128;-69
2022/06/21 01:15:08;;;;;;;0.60;0.60;;;13.00;99.90;;;;;;4912836;29;20048;-69
2022/06/21 01:17:35;;;;;;;1.17;1.08;;;13.00;99.90;;;;;;4899808;29;20044;-69
2022/06/21 01:20:06;;;;;;;0.10;0.10;;;13.00;99.90;;;;;;4893394;29;20095;-69
2022/06/21 01:22:49;;;;;;;0.10;0.10;;;12.90;99.90;;;;;;4894876;29;20056;-69
2022/06/21 01:25:30;;;;;;;0.03;0.03;;;13.00;99.90;;;;;;4894735;29;20449;-69
2022/06/21 01:27:56;;;;;;;0.30;0.30;;;13.00;99.90;;;;;;4894394;29;20044;-69
2022/06/21 01:30:27;;;;;;;0.10;0.10;;;12.90;99.90;;;;;;4898682;29;20103;-69
2022/06/21 01:32:55;;;;;;;0.10;0.10;;;12.90;99.90;;;;;;4915567;29;20128;-69
2022/06/21 01:35:42;;;;;;;0.10;0.10;;;12.80;99.90;;;;;;4915850;29;20064;-69
2022/06/21 01:38:17;;;;;;;0.47;0.47;;;12.90;99.90;;;;;;4904002;29;20466;-70
2022/06/21 01:40:46;;;;;;;1.10;1.08;;;12.80;99.90;;;;;;4898298;29;20067;-69
2022/06/21 01:43:16;;;;;;;0.10;0.10;;;12.80;99.90;;;;;;4897252;29;20045;-69
2022/06/21 01:45:47;;;;;;;0.10;0.10;;;12.80;99.90;;;;;;4916021;29;20063;-69
2022/06/21 01:48:18;;;;;;;0.52;0.52;;;12.90;99.90;;;;;;4915118;29;20056;-69
2022/06/21 01:50:47;;;;;;;0.00;0.00;;;12.90;99.90;;;;;;4916184;29;20063;-69
2022/06/21 01:53:14;;;;;;;0.10;0.10;;;12.90;99.90;;;;;;4904639;29;20053;-69
2022/06/21 01:55:44;;;;;;;0.10;0.10;;;12.90;99.90;;;;;;4896387;29;20057;-69
2022/06/21 01:58:14;;;;;;;0.00;0.00;;;12.80;99.90;;;;;;4895510;29;20083;-69
2022/06/21 02:00:44;;;;;;;0.30;0.30;;;12.80;99.90;;;;;;4897612;29;20060;-69
2022/06/21 02:03:16;;;;;;;1.75;1.50;;;12.70;99.90;;;;;;4896798;29;20044;-69
2022/06/21 02:05:49;;;;;;;0.08;0.08;;;12.60;99.90;;;;;;4897784;29;20088;-69
2022/06/21 02:08:19;;;;;;;0.13;0.13;;;12.50;99.90;;;;;;4905591;29;20063;-69
2022/06/21 02:10:57;;;;;;;0.00;0.00;;;12.50;99.90;;;;;;4914200;29;20076;-69
2022/06/21 02:13:47;;;;;;;0.10;0.10;;;12.50;99.90;;;;;;4909581;29;20048;-69
2022/06/21 02:16:19;;;;;;;0.20;0.20;;;12.40;99.90;;;;;;4897359;29;20044;-69
2022/06/21 02:18:50;;;;;;;0.08;0.08;;;12.30;99.90;;;;;;4895298;29;20052;-69
2022/06/21 02:21:34;;;;;;;0.10;0.10;;;12.20;99.90;;;;;;4896741;29;20511;-70
2022/06/21 02:24:00;;;;;;;0.10;0.10;;;12.20;99.90;;;;;;4896851;29;20049;-70
2022/06/21 02:26:29;;;;;;;0.10;0.10;;;12.20;99.90;;;;;;4896023;29;20053;-70
2022/06/21 02:28:56;;;;;;;0.00;0.00;;;12.10;99.90;;;;;;4897048;29;20509;-69
2022/06/21 02:31:24;;;;;;;0.00;0.00;;;12.10;99.90;;;;;;4902979;29;20051;-70
2022/06/21 02:33:51;;;;;;;0.00;0.00;;;12.20;99.90;;;;;;4915930;29;20096;-70
2022/06/21 02:36:22;;;;;;;0.17;0.17;;;12.10;99.90;;;;;;4915946;29;20052;-69
2022/06/21 02:38:54;;;;;;;0.20;0.20;;;12.10;99.90;;;;;;4915388;29;20134;-69
2022/06/21 02:41:32;;;;;;;0.10;0.10;;;12.10;99.90;;;;;;4896828;29;20108;-69
2022/06/21 02:44:06;;;;;;;0.00;0.00;;;12.00;99.90;;;;;;4897130;29;20059;-69
2022/06/21 02:46:36;;;;;;;0.10;0.10;;;12.10;99.90;;;;;;4913498;29;20556;-69
2022/06/21 02:49:10;;;;;;;0.32;0.32;;;12.00;99.90;;;;;;4915386;29;20556;-69
2022/06/21 02:51:48;;;;;;;0.10;0.10;;;12.00;99.90;;;;;;4907805;29;20048;-70
2022/06/21 02:54:33;;;;;;;0.10;0.10;;;12.00;99.90;;;;;;4895585;29;20191;-70
2022/06/21 02:57:33;;;;;;;0.10;0.10;;;11.90;99.90;;;;;;4896710;29;20040;-69
2022/06/21 03:00:02;;;;;;;1.10;1.00;;;11.90;99.90;;;;;;4895445;29;20052;-69
2022/06/21 03:02:35;;;;;;;0.00;0.00;;;12.00;99.90;;;;;;4896512;29;20093;-69
2022/06/21 03:05:04;;;;;;;0.00;0.00;;;11.90;99.90;;;;;;4893453;29;20471;-69
2022/06/21 03:07:38;;;;;;;0.03;0.03;;;11.90;99.90;;;;;;4896797;29;20124;-69
2022/06/21 03:10:07;;;;;;;0.17;0.17;;;11.80;99.90;;;;;;4895885;29;20493;-69
2022/06/21 03:12:35;;;;;;;0.00;0.00;;;11.90;99.90;;;;;;4896391;29;20040;-69
2022/06/21 03:15:10;;;;;;;0.10;0.10;;;12.00;99.90;;;;;;4894806;29;20052;-69
2022/06/21 03:17:45;;;;;;;0.00;0.00;;;12.00;99.90;;;;;;4896268;29;20051;-69
2022/06/21 03:20:17;;;;;;;0.10;0.10;;;12.00;99.90;;;;;;4896221;29;20053;-69
2022/06/21 03:22:44;;;;;;;0.00;0.00;;;12.00;99.90;;;;;;4898241;29;20489;-69
2022/06/21 03:25:21;;;;;;;0.00;0.00;;;12.00;99.90;;;;;;4914839;29;20063;-69
2022/06/21 03:27:49;;;;;;;0.00;0.00;;;12.00;99.90;;;;;;4900950;29;20056;-69
2022/06/21 03:30:19;;;;;;;0.10;0.10;;;11.90;99.90;;;;;;4895760;29;20144;-69
2022/06/21 03:32:45;;;;;;;0.10;0.10;;;12.00;99.90;;;;;;4896286;29;20049;-69
2022/06/21 03:35:11;;;;;;;1.90;0.40;;;12.00;99.90;;;;;;4893608;29;20060;-69
2022/06/21 03:37:39;;;;;;;0.10;0.10;;;12.00;99.90;;;;;;4896924;29;20061;-69
2022/06/21 03:42:53;;;;;;;0.08;0.08;;;12.10;99.90;;;;;;4914340;29;20058;-69
2022/06/21 03:45:34;;;;;;;0.10;0.10;;;12.10;99.90;;;;;;4910813;29;20135;-69
2022/06/21 03:48:09;;;;;;;0.00;0.00;;;12.10;99.90;;;;;;4909955;29;20135;-69
2022/06/21 03:50:55;;;;;;;0.10;0.10;;;12.10;99.90;;;;;;4909163;29;20480;-69
2022/06/21 03:53:26;;;;;;;0.10;0.10;;;12.10;99.90;;;;;;4913864;29;20416;-69
2022/06/21 03:56:09;;;;;;;0.10;0.10;;;12.10;99.90;;;;;;4914186;29;20048;-69
2022/06/21 03:58:48;;;;;;;0.10;0.10;;;12.10;99.90;;;;;;4911235;29;20052;-69
2022/06/21 04:01:35;;;;;;;0.10;0.10;;;12.10;99.90;;;;;;4912701;29;20135;-69
2022/06/21 04:04:26;;;;;;;0.00;0.00;;;12.20;99.90;;;;;;4913524;29;20052;-69
2022/06/21 04:07:00;;;;;;;0.10;0.10;;;12.20;99.90;;;;;;4909954;29;20174;-69
2022/06/21 04:09:54;;;;;;;0.10;0.10;;;12.20;99.90;;;;;;4914303;29;20063;-69
2022/06/21 04:12:39;;;;;;;;;;;12.10;99.90;;;;;;4898746;29;20150;-69
2022/06/21 04:15:08;;;;;;;0.10;0.10;;;12.20;99.90;;;;;;4911721;29;19923;-69
2022/06/21 04:17:44;;;;;;;0.10;0.10;;;12.20;99.90;;;;;;4913645;29;20048;-69
2022/06/21 04:20:21;;;;;;;0.10;0.10;;;12.30;99.90;;;;;;4909989;29;20523;-69
2022/06/21 04:22:58;;;;;;;0.10;0.10;;;12.40;99.90;;;;;;4893919;29;20059;-69
2022/06/21 04:25:51;;;;;;;0.45;0.45;;;12.40;99.90;;;;;;4894486;29;20489;-69
2022/06/21 04:28:36;;;;;;;0.57;0.57;;;12.30;99.90;;;;;;4906942;29;20064;-69
2022/06/21 04:31:20;;;;;;;0.10;0.10;;;12.40;99.90;;;;;;4911961;29;20799;-69
2022/06/21 04:33:49;;;;;;;0.80;0.43;;;12.50;99.90;;;;;;4909636;29;20500;-69
2022/06/21 04:36:56;;;;;;;0.10;0.10;;;12.60;99.90;;;;;;4913798;29;20059;-69
2022/06/21 04:39:51;;;;;;;0.20;0.20;;;12.70;99.90;;;;;;4911413;29;20381;-69
2022/06/21 04:42:48;;;;;;;0.10;0.10;;;12.70;99.90;;;;;;4894571;29;20427;-69
2022/06/21 04:45:22;;;;;;;0.77;0.77;;;12.80;99.90;;;;;;4894399;29;20048;-69
2022/06/21 04:48:03;;;;;;;0.10;0.10;;;12.90;99.90;;;;;;4896548;29;20044;-69
2022/06/21 04:50:39;;;;;;;0.10;0.10;;;13.00;99.90;;;;;;4909662;29;20051;-69
2022/06/21 04:53:15;;;;;;;0.10;0.10;;;13.10;99.90;;;;;;4910983;29;20059;-69
2022/06/21 04:56:09;;;;;;;0.10;0.10;;;13.20;99.90;;;;;;4912202;29;20094;-69
2022/06/21 04:58:35;;;;;;;0.10;0.10;;;13.10;99.90;;;;;;4893306;29;20063;-69
2022/06/21 05:01:29;;;;;;;1.08;0.85;;;13.20;99.90;;;;;;4893996;29;20052;-69
2022/06/21 05:03:47;;;;;;;0.10;0.10;;;13.20;99.90;;;;;;4893942;29;20064;-69
2022/06/21 05:06:14;;;;;;;0.20;0.20;;;13.30;99.90;;;;;;4892919;29;20752;-69
2022/06/21 05:08:41;;;;;;;0.38;0.38;;;13.40;99.90;;;;;;4898364;29;20533;-69
2022/06/21 05:11:10;;;;;;;0.10;0.10;;;13.40;99.90;;;;;;4898125;29;20052;-69
2022/06/21 05:13:45;;;;;;;0.10;0.10;;;13.50;99.90;;;;;;4916169;29;20051;-70
2022/06/21 05:16:23;;;;;;;0.20;0.20;;;13.50;99.90;;;;;;4915941;29;20056;-70
2022/06/21 05:18:59;;;;;;;0.10;0.10;;;13.60;99.90;;;;;;4916149;29;20531;-70
2022/06/21 05:21:34;;;;;;;0.10;0.10;;;13.60;99.90;;;;;;4915470;29;20040;-70
2022/06/21 05:24:01;;;;;;;3.30;1.05;;;13.70;99.90;;;;;;4915801;29;20135;-69
2022/06/21 05:26:55;;;;;;;3.72;1.25;;;13.80;99.90;;;;;;4913686;29;20048;-69
2022/06/21 05:29:36;;;;;;;0.17;0.17;;;13.80;99.90;;;;;;4907677;29;20501;-69
2022/06/21 05:32:09;;;;;;;0.00;0.00;;;13.90;99.90;;;;;;4917150;29;20044;-70
2022/06/21 05:34:42;;;;;;;0.10;0.10;;;13.90;99.90;;;;;;4896632;29;20486;-70
2022/06/21 05:37:23;;;;;;;1.90;1.38;;;13.90;99.90;;;;;;4896667;29;20057;-69
2022/06/21 05:39:50;;;;;;;0.00;0.00;;;13.90;99.90;;;;;;4906970;29;20058;-70
2022/06/21 05:42:20;;;;;;;0.10;0.10;;;13.90;99.90;;;;;;4916039;29;20449;-70
2022/06/21 05:44:53;;;;;;;0.20;0.20;;;14.00;99.90;;;;;;4913559;29;20060;-70
2022/06/21 05:47:25;;;;;;;0.00;0.00;;;14.00;99.90;;;;;;4915557;29;20052;-70
2022/06/21 05:49:52;;;;;;;0.27;0.27;;;14.10;99.90;;;;;;4915028;29;20416;-69
2022/06/21 05:52:23;;;;;;;0.10;0.10;;;14.20;99.90;;;;;;4910610;29;20508;-69
2022/06/21 05:55:12;;;;;;;0.10;0.10;;;14.30;99.90;;;;;;4916893;29;20135;-69
2022/06/21 05:57:54;;;;;;;0.15;0.15;;;14.30;99.90;;;;;;4901620;29;20196;-70
2022/06/21 06:00:48;;;;;;;0.20;0.20;;;14.30;99.90;;;;;;4895838;29;20076;-70
2022/06/21 06:03:23;;;;;;;0.10;0.10;;;14.40;99.90;;;;;;4891465;29;20056;-70
2022/06/21 06:05:49;;;;;;;0.00;0.00;;;14.40;99.90;;;;;;4907169;29;20084;-70
2022/06/21 06:08:23;;;;;;;1.65;1.27;;;14.50;99.90;;;;;;4912363;29;20092;-70
2022/06/21 06:10:49;;;;;;;0.32;0.32;;;14.60;99.90;;;;;;4897266;29;20044;-70
2022/06/21 06:13:20;;;;;;;1.55;0.85;;;14.50;99.90;;;;;;4902810;29;20052;-70
2022/06/21 06:15:50;;;;;;;0.00;0.00;;;14.50;99.90;;;;;;4904224;29;20048;-70
2022/06/21 06:18:47;;;;;;;0.17;0.17;;;14.60;99.90;;;;;;4895763;29;20048;-70
2022/06/21 06:21:28;;;;;;;0.10;0.10;;;14.60;99.90;;;;;;4902091;29;20048;-69
2022/06/21 06:24:09;;;;;;;0.10;0.10;;;14.60;99.90;;;;;;4915596;29;20146;-70
2022/06/21 06:26:39;;;;;;;4.45;3.83;;;14.70;99.90;;;;;;4914607;29;20118;-70
2022/06/21 06:29:28;;;;;;;0.40;0.40;;;14.70;99.90;;;;;;4913499;29;20040;-70
2022/06/21 06:32:03;;;;;;;0.00;0.00;;;14.70;99.90;;;;;;4914498;29;20372;-69
2022/06/21 06:34:33;;;;;;;2.25;0.35;;;14.70;99.90;;;;;;4916050;29;20103;-70
2022/06/21 06:37:21;;;;;;;0.10;0.10;;;14.80;99.90;;;;;;4911437;29;20071;-70
2022/06/21 06:39:47;;;;;;;0.25;0.25;;;14.80;99.90;;;;;;4914186;29;20040;-70
2022/06/21 06:42:15;;;;;;;0.10;0.10;;;14.80;99.90;;;;;;4914485;29;20511;-69
2022/06/21 06:44:50;;;;;;;0.40;0.30;;;14.90;99.90;;;;;;4896393;29;20914;-70
2022/06/21 06:47:34;;;;;;;0.00;0.00;;;14.90;99.90;;;;;;4896998;29;20576;-69
2022/06/21 06:50:21;;;;;;;0.45;0.45;;;14.90;99.90;;;;;;4896306;29;20124;-69
2022/06/21 06:52:53;;;;;;;0.00;0.00;;;15.00;99.90;;;;;;4910951;29;20107;-70
2022/06/21 06:55:30;;;;;;;0.13;0.13;;;15.00;99.90;;;;;;4914230;29;20062;-70
2022/06/21 06:58:03;;;;;;;0.10;0.10;;;15.00;99.90;;;;;;4915892;29;20056;-70
2022/06/21 07:00:43;;;;;;;0.00;0.00;;;15.10;99.90;;;;;;4910422;29;20146;-70
2022/06/21 07:03:17;;;;;;;0.00;0.00;;;15.20;99.90;;;;;;4915368;29;20519;-70
2022/06/21 07:06:03;;;;;;;0.10;0.10;;;15.30;99.90;;;;;;4900485;29;20095;-70
2022/06/21 07:08:43;;;;;;;0.00;0.00;;;15.30;99.90;;;;;;4895314;29;20052;-70
2022/06/21 07:11:29;;;;;;;2.20;0.63;;;15.40;99.90;;;;;;4896015;29;20048;-69
2022/06/21 07:13:56;;;;;;;0.20;0.20;;;15.50;99.90;;;;;;4898553;29;20098;-70
2022/06/21 07:16:24;;;;;;;0.50;0.50;;;15.70;99.90;;;;;;4915438;29;20067;-70
2022/06/21 07:18:54;;;;;;;0.15;0.15;;;15.70;99.90;;;;;;4911057;29;20047;-69
2022/06/21 07:21:22;;;;;;;0.10;0.10;;;15.80;99.90;;;;;;4913652;29;20048;-70
2022/06/21 07:23:49;;;;;;;0.10;0.10;;;15.90;99.90;;;;;;4913819;29;20055;-69
2022/06/21 07:26:19;;;;;;;1.02;0.38;;;15.90;99.90;;;;;;4900278;29;20063;-69
2022/06/21 07:29:02;;;;;;;0.10;0.10;;;16.00;99.90;;;;;;4894602;29;20045;-69
2022/06/21 07:31:33;;;;;;;0.00;0.00;;;16.10;99.90;;;;;;4914653;29;20062;-70
2022/06/21 07:34:17;;;;;;;0.10;0.10;;;16.10;99.90;;;;;;4914179;29;20126;-69
2022/06/21 07:36:51;;;;;;;0.13;0.13;;;16.10;99.90;;;;;;4915011;29;20056;-69
2022/06/21 07:39:26;;;;;;;0.00;0.00;;;16.10;99.90;;;;;;4905705;29;20056;-69
2022/06/21 07:41:59;;;;;;;0.52;0.52;;;16.00;99.90;;;;;;4895700;29;20437;-69
2022/06/21 07:44:33;;;;;;;0.13;0.13;;;16.00;99.90;;;;;;4894994;29;20053;-69
2022/06/21 07:47:32;;;;;;;0.20;0.20;;;16.10;99.90;;;;;;4909417;29;20049;-69
2022/06/21 07:50:05;;;;;;;0.00;0.00;;;16.20;99.90;;;;;;4894658;29;20071;-69
2022/06/21 07:52:42;;;;;;;0.20;0.20;;;16.30;99.90;;;;;;4895871;29;20100;-69
2022/06/21 07:55:25;;;;;;;0.10;0.10;;;16.40;99.90;;;;;;4894896;29;20531;-69
2022/06/21 07:57:58;;;;;;;0.30;0.30;;;16.40;99.90;;;;;;4895227;29;20066;-69
2022/06/21 08:06:40;;;;;;;0.00;0.00;;;16.50;99.90;;;;;;4895879;29;20058;-69
2022/06/21 08:08:58;;;;;;;0.00;0.00;;;16.70;99.90;;;;;;4895913;29;20060;-69
2022/06/21 08:11:35;;;;;;;0.05;0.05;;;16.80;99.90;;;;;;4905477;29;20408;-69
2022/06/21 08:14:01;;;;;;;0.10;0.10;;;16.90;99.90;;;;;;4914229;29;20515;-69
2022/06/21 08:16:48;;;;;;;0.10;0.10;;;17.00;99.90;;;;;;4913877;29;20151;-69
2022/06/21 08:19:36;;;;;;;0.10;0.10;;;16.90;99.90;;;;;;4909534;29;20405;-69
2022/06/21 08:22:09;;;;;;;0.00;0.00;;;16.90;99.90;;;;;;4912403;29;20079;-69
2022/06/21 08:25:01;;;;;;;0.00;0.00;;;16.90;99.90;;;;;;4913638;29;20052;-69
2022/06/21 08:27:41;;;;;;;0.20;0.20;;;16.90;99.90;;;;;;4911715;29;20056;-69
2022/06/21 08:30:09;;;;;;;0.35;0.35;;;16.80;99.90;;;;;;4912372;29;20058;-69
2022/06/21 08:32:43;;;;;;;0.10;0.10;;;16.90;99.90;;;;;;4910569;29;20040;-69
2022/06/21 08:35:28;;;;;;;0.30;0.30;;;17.00;99.90;;;;;;4894663;29;20060;-69
2022/06/21 08:38:06;;;;;;;2.85;0.80;;;17.00;99.90;;;;;;4893276;29;20059;-69
2022/06/21 08:40:40;;;;;;;0.00;0.00;;;17.10;99.90;;;;;;4909458;29;20834;-69
2022/06/21 08:43:34;;;;;;;0.35;0.35;;;17.20;99.90;;;;;;4912016;29;20060;-69
2022/06/21 08:46:33;;;;;;;0.10;0.10;;;17.30;99.90;;;;;;4915933;29;20055;-70
2022/06/21 08:49:41;;;;;;;0.10;0.10;;;17.20;99.90;;;;;;4915477;29;20095;-69
2022/06/21 08:52:54;;;;;;;0.20;0.20;;;17.30;99.90;;;;;;4916849;29;20063;-69
2022/06/21 08:55:45;;;;;;;0.10;0.10;;;17.30;99.90;;;;;;4877546;29;20460;-69
2022/06/21 08:58:33;;;;;;;0.10;0.10;;;17.50;99.90;;;;;;4898065;29;20044;-69
2022/06/21 09:01:02;;;;;;;0.00;0.00;;;17.60;99.90;;;;;;4897219;29;20060;-69
2022/06/21 09:03:46;;;;;;;0.10;0.10;;;17.80;99.90;;;;;;4906282;29;20095;-69
2022/06/21 09:06:14;;;;;;;0.40;0.40;;;17.80;99.90;;;;;;4915529;29;20396;-69
2022/06/21 09:09:08;;;;;;;0.03;0.03;;;17.80;99.90;;;;;;4917515;29;20148;-69
2022/06/21 09:11:51;;;;;;;0.10;0.10;;;17.70;99.90;;;;;;4899295;29;20052;-69
2022/06/21 09:14:29;;;;;;;0.00;0.00;;;17.70;99.90;;;;;;4898578;29;20385;-69
2022/06/21 09:17:27;;;;;;;0.00;0.00;;;17.60;99.90;;;;;;4909504;29;20054;-69
2022/06/21 09:20:16;;;;;;;0.10;0.10;;;17.50;99.90;;;;;;4916885;29;20100;-69
2022/06/21 09:23:08;;;;;;;0.10;0.10;;;17.40;99.90;;;;;;4912590;29;20044;-69
2022/06/21 09:25:43;;;;;;;0.10;0.10;;;17.40;99.90;;;;;;4915950;29;20059;-69
2022/06/21 09:28:29;;;;;;;0.03;0.03;;;17.50;99.90;;;;;;4913726;29;20060;-69
2022/06/21 09:31:08;;;;;;;0.10;0.10;;;17.50;99.90;;;;;;4915940;29;20048;-69
2022/06/21 09:33:48;;;;;;;0.10;0.10;;;17.60;99.90;;;;;;4916204;29;20044;-69
2022/06/21 09:36:22;;;;;;;0.10;0.10;;;17.60;99.90;;;;;;4912459;29;20401;-69
2022/06/21 09:39:13;;;;;;;0.10;0.10;;;17.60;99.90;;;;;;4906189;29;20112;-69
2022/06/21 09:41:47;;;;;;;4.03;1.33;;;17.70;99.90;;;;;;4900568;29;20053;-69
2022/06/21 09:44:35;;;;;;;0.13;0.13;;;17.70;99.90;;;;;;4898678;29;20361;-69
2022/06/21 09:47:14;;;;;;;0.10;0.10;;;17.70;99.90;;;;;;4909850;29;20056;-69
2022/06/21 09:49:54;;;;;;;5.18;1.23;;;17.90;99.90;;;;;;4906872;29;20060;-69
2022/06/21 09:52:39;;;;;;;0.00;0.00;;;17.90;99.90;;;;;;4897139;29;20115;-69
2022/06/21 09:55:11;;;;;;;0.10;0.10;;;18.40;99.90;;;;;;4915630;29;20048;-69
2022/06/21 09:57:46;;;;;;;0.20;0.20;;;18.70;99.90;;;;;;4915176;29;20504;-69
2022/06/21 10:00:16;;;;;;;0.00;0.00;;;19.00;99.90;;;;;;4915039;29;20587;-69
2022/06/21 10:03:19;;;;;;;0.10;0.10;;;19.50;99.90;;;;;;4907474;29;20560;-68
2022/06/21 10:05:53;;;;;;;1.95;1.35;;;19.90;99.90;;;;;;4908269;29;20062;-69
2022/06/21 10:08:37;;;;;;;0.10;0.10;;;20.10;99.90;;;;;;4901942;29;20072;-69
2022/06/21 10:11:26;;;;;;;0.00;0.00;;;20.00;99.90;;;;;;4896021;29;20060;-69
2022/06/21 10:14:17;;;;;;;0.08;0.08;;;20.10;99.90;;;;;;4898508;29;20057;-70
2022/06/21 10:17:01;;;;;;;0.10;0.10;;;20.30;99.90;;;;;;4910695;29;20468;-69
2022/06/21 10:19:46;;;;;;;0.00;0.00;;;20.60;99.90;;;;;;4913783;29;20063;-69
2022/06/21 10:22:38;;;;;;;0.08;0.08;;;20.70;99.90;;;;;;4915544;29;20056;-69
2022/06/21 10:25:31;;;;;;;0.20;0.15;;;20.80;99.90;;;;;;4914823;29;20075;-69
2022/06/21 10:28:15;;;;;;;0.00;0.00;;;20.80;99.90;;;;;;4916001;29;20040;-69
2022/06/21 10:31:11;;;;;;;0.10;0.10;;;20.60;99.90;;;;;;4908608;29;20056;-69
2022/06/21 10:33:46;;;;;;;3.50;1.75;;;20.70;99.90;;;;;;4897209;29;20145;-69
2022/06/21 10:36:54;;;;;;;0.30;0.30;;;20.90;99.90;;;;;;4895355;29;20060;-69
2022/06/21 10:39:38;;;;;;;0.20;0.20;;;20.90;99.90;;;;;;4877322;29;20056;-69
2022/06/21 10:42:49;;;;;;;11.80;0.55;;;21.10;99.90;;;;;;4895872;29;20048;-69
2022/06/21 10:45:47;;;;;;;0.00;0.00;;;20.80;99.90;;;;;;4893674;29;20060;-69
2022/06/21 10:48:44;;;;;;;0.10;0.10;;;20.50;99.90;;;;;;4896511;29;20051;-69
2022/06/21 10:51:25;;;;;;;0.00;0.00;;;20.40;99.90;;;;;;4908259;29;20079;-68
2022/06/21 10:54:00;;;;;;;0.10;0.10;;;20.50;99.90;;;;;;4915901;29;20059;-69
2022/06/21 10:57:14;;;;;;;0.65;0.65;;;20.70;99.90;;;;;;4915735;29;20095;-69
2022/06/21 11:02:48;;;;;;;0.00;0.00;;;21.00;99.90;;;;;;4915582;29;19974;-69
2022/06/21 11:05:25;;;;;;;0.10;0.10;;;21.30;99.90;;;;;;4909535;29;20179;-69
2022/06/21 11:08:00;;;;;;;0.15;0.15;;;21.30;99.90;;;;;;4914103;29;20059;-69
2022/06/21 11:10:34;;;;;;;0.25;0.25;;;21.30;99.90;;;;;;4912695;29;20408;-68
2022/06/21 11:13:04;;;;;;;0.00;0.00;;;21.50;99.90;;;;;;4913108;29;20496;-69
2022/06/21 11:15:49;;;;;;;0.10;0.10;;;21.70;99.90;;;;;;4914839;29;20052;-69
2022/06/21 11:18:21;;;;;;;0.10;0.10;;;21.60;99.90;;;;;;4908382;29;20090;-69
2022/06/21 11:21:08;;;;;;;0.20;0.10;;;21.90;99.90;;;;;;4894055;29;20100;-69
2022/06/21 11:24:04;;;;;;;0.00;0.00;;;21.90;99.90;;;;;;4895035;29;20103;-69
2022/06/21 11:27:18;;;;;;;0.00;0.00;;;22.20;99.90;;;;;;4910535;29;20496;-69
2022/06/21 11:30:07;;;;;;;0.00;0.00;;;22.20;99.90;;;;;;4906878;29;20064;-69
2022/06/21 11:32:58;;;;;;;0.20;0.20;;;22.10;99.90;;;;;;4911294;29;20480;-69
2022/06/21 11:35:40;;;;;;;0.08;0.08;;;22.10;99.90;;;;;;4914490;29;20412;-68
2022/06/21 11:38:37;;;;;;;0.00;0.00;;;22.10;99.90;;;;;;4914711;29;20087;-69
2022/06/21 11:44:19;;;;;;;0.10;0.10;;;21.50;99.90;;;;;;4895778;29;20049;-69
2022/06/21 11:47:11;;;;;;;0.08;0.08;;;21.40;99.90;;;;;;4908596;29;20048;-69
2022/06/21 11:49:57;;;;;;;0.00;0.00;;;22.10;99.90;;;;;;4914616;29;20555;-69
2022/06/21 11:52:43;;;;;;;0.00;0.00;;;22.30;99.90;;;;;;4906463;29;20075;-69
2022/06/21 11:55:25;;;;;;;0.00;0.00;;;22.50;99.90;;;;;;4896438;29;20048;-69
2022/06/21 11:58:15;;;;;;;0.00;0.00;;;22.70;99.90;;;;;;4895932;29;20124;-69
2022/06/21 12:00:44;;;;;;;0.90;0.30;;;23.00;99.90;;;;;;4896066;29;20112;-68
2022/06/21 12:03:34;;;;;;;0.10;0.10;;;23.00;99.90;;;;;;4893203;29;20059;-69
2022/06/21 12:06:29;;;;;;;0.00;0.00;;;22.70;99.90;;;;;;4884354;29;20124;-69
2022/06/21 12:09:20;;;;;;;0.00;0.00;;;22.60;99.90;;;;;;4894033;29;20124;-69
2022/06/21 12:12:21;;;;;;;0.10;0.10;;;22.80;99.90;;;;;;4907268;29;20091;-69
2022/06/21 12:15:20;;;;;;;2.72;1.33;;;23.30;99.90;;;;;;4884072;29;20068;-68
2022/06/21 12:18:07;;;;;;;0.10;0.10;;;23.10;99.80;;;;;;4894937;29;20048;-69
2022/06/21 12:20:51;;;;;;;0.00;0.00;;;23.00;99.90;;;;;;4894739;29;20048;-68
2022/06/21 12:23:28;;;;;;;0.15;0.10;;;23.00;99.90;;;;;;4911468;29;20084;-68
2022/06/21 12:25:54;;;;;;;0.00;0.00;;;23.10;99.90;;;;;;4914374;29;20075;-69
2022/06/21 12:28:23;;;;;;;0.00;0.00;;;23.60;99.90;;;;;;4898757;29;20517;-69
2022/06/21 12:30:50;;;;;;;0.10;0.10;;;23.50;99.90;;;;;;4894573;29;20095;-68
2022/06/21 12:33:19;;;;;;;0.10;0.10;;;23.70;99.90;;;;;;4902605;29;20056;-69
2022/06/21 12:36:13;;;;;;;5.38;0.40;;;23.60;99.90;;;;;;4913839;29;20412;-69
2022/06/21 12:38:54;;;;;;;;;;;23.50;99.80;;;;;;4911304;29;20131;-69
2022/06/21 12:41:44;;;;;;;0.00;0.00;;;23.60;98.00;;;;;;4894818;29;20323;-68
2022/06/21 12:44:35;;;;;;;0.00;0.00;;;23.90;99.90;;;;;;4893082;29;20485;-69
2022/06/21 12:47:04;;;;;;;0.00;0.00;;;24.00;99.00;;;;;;4903727;29;20066;-69
2022/06/21 12:49:44;;;;;;;0.00;0.00;;;24.40;99.90;;;;;;4912254;29;20056;-68
2022/06/21 12:52:30;;;;;;;0.00;0.00;;;24.30;98.50;;;;;;4903224;29;20136;-68
2022/06/21 12:55:14;;;;;;;0.63;0.55;;;24.50;99.20;;;;;;4893748;29;20059;-69
2022/06/21 12:58:07;;;;;;;0.10;0.10;;;24.40;98.40;;;;;;4892127;29;20063;-69
2022/06/21 13:00:55;;;;;;;0.00;0.00;;;24.30;99.30;;;;;;4894616;29;20497;-69
2022/06/21 13:03:37;;;;;;;0.00;0.00;;;24.80;99.60;;;;;;4894578;29;20136;-69
2022/06/21 13:06:22;;;;;;;0.00;0.00;;;24.70;98.40;;;;;;4905766;29;20056;-69
2022/06/21 13:08:53;;;;;;;0.25;0.10;;;24.70;97.60;;;;;;4909050;29;20044;-69
2022/06/21 13:11:40;;;;;;;0.00;0.00;;;25.00;98.40;;;;;;4909116;29;20107;-69
2022/06/21 13:14:30;;;;;;;1.02;0.40;;;25.00;98.80;;;;;;4913602;29;20123;-69
2022/06/21 13:17:28;;;;;;;0.65;0.32;;;25.10;97.90;;;;;;4898476;29;20057;-69
2022/06/21 13:20:06;;;;;;;0.00;0.00;;;24.80;97.00;;;;;;4899157;29;20060;-69
2022/06/21 13:22:42;;;;;;;0.00;0.00;;;24.40;98.00;;;;;;4913587;29;20123;-69
2022/06/21 13:25:38;;;;;;;0.00;0.00;;;24.20;98.90;;;;;;4912170;29;20068;-69
2022/06/21 13:28:09;;;;;;;0.00;0.00;;;24.30;99.60;;;;;;4914523;29;20211;-69
2022/06/21 13:30:48;;;;;;;0.10;0.10;;;24.10;98.20;;;;;;4899877;29;20267;-69
2022/06/21 13:33:17;;;;;;;0.00;0.00;;;23.90;97.10;;;;;;4897589;29;20057;-69
2022/06/21 13:36:07;;;;;;;0.10;0.10;;;24.00;99.90;;;;;;4904133;29;20066;-69
2022/06/21 13:38:53;;;;;;;0.00;0.00;;;24.00;98.40;;;;;;4916902;29;20099;-68
2022/06/21 13:44:37;;;;;;;0.00;0.00;;;24.40;98.30;;;;;;4899773;29;20052;-69
2022/06/21 13:47:26;;;;;;;14.85;0.45;;;24.30;99.10;;;;;;4896940;29;20048;-69
2022/06/21 13:50:27;;;;;;;0.00;0.00;;;24.30;99.10;;;;;;4897046;29;20048;-69
2022/06/21 13:53:00;;;;;;;0.00;0.00;;;24.30;98.00;;;;;;4891092;29;20085;-69
2022/06/21 13:55:46;;;;;;;3.33;0.45;;;24.20;97.20;;;;;;4915789;29;20122;-69
2022/06/21 13:58:32;;;;;;;0.00;0.00;;;24.00;99.10;;;;;;4912289;29;20041;-69
2022/06/21 14:01:30;;;;;;;0.00;0.00;;;24.00;98.70;;;;;;4914386;29;20135;-69
2022/06/21 14:04:14;;;;;;;0.38;0.30;;;23.90;99.90;;;;;;4908811;29;20077;-69
2022/06/21 14:06:54;;;;;;;;;;;24.00;99.90;;;;;;4909159;29;20052;-69